Time;durP1;ratioP1;P1;durP2;ratioP2;P2;SDS_P1;SDS_P2;PMS_P1;PMS_P2;Temp;Humidity;BMP_temperature;BMP_pressure;BME280_temperature;BME280_humidity;BME280_pressure;Samples;Min_cycle;Max_cycle;Signal;HPM_P1;HPM_P2
2022/11/15 00:02:27;;;;;;;9.00;4.00;;;11.10;82.20;;;;;;5016789;28;20454;-69
2022/11/15 00:05:13;;;;;;;7.73;3.63;;;11.10;82.20;;;;;;5022880;28;20502;-70
2022/11/15 00:08:00;;;;;;;8.10;3.90;;;11.00;82.30;;;;;;5022414;28;20498;-69
2022/11/15 00:10:56;;;;;;;7.37;4.20;;;11.00;82.30;;;;;;5029593;28;20462;-68
2022/11/15 00:13:43;;;;;;;7.20;4.50;;;11.00;82.40;;;;;;5023873;28;21064;-69
2022/11/15 00:16:29;;;;;;;7.30;4.43;;;11.00;82.40;;;;;;5021333;28;20455;-69
2022/11/15 00:19:16;;;;;;;6.70;3.57;;;10.90;82.40;;;;;;5020575;28;21000;-69
2022/11/15 00:22:02;;;;;;;8.07;4.20;;;11.00;82.50;;;;;;5020838;28;20467;-69
2022/11/15 00:24:49;;;;;;;10.00;3.80;;;11.00;82.50;;;;;;5022704;28;20491;-70
2022/11/15 00:27:36;;;;;;;6.90;4.83;;;10.90;82.50;;;;;;5023263;28;21011;-70
2022/11/15 00:30:23;;;;;;;10.03;5.53;;;10.90;82.50;;;;;;5027324;28;20451;-69
2022/11/15 00:33:10;;;;;;;8.60;5.07;;;10.90;82.50;;;;;;5025712;28;20510;-70
2022/11/15 00:36:01;;;;;;;10.80;4.63;;;10.90;82.50;;;;;;5026636;28;20594;-69
2022/11/15 00:38:47;;;;;;;10.67;4.70;;;10.90;82.50;;;;;;5026980;28;20474;-69
2022/11/15 00:41:34;;;;;;;8.37;4.20;;;10.90;82.60;;;;;;5024807;28;20459;-69
2022/11/15 00:44:22;;;;;;;8.77;4.43;;;10.90;82.60;;;;;;5028537;28;21200;-70
2022/11/15 00:47:09;;;;;;;10.00;5.60;;;10.90;82.60;;;;;;5025943;28;20475;-69
2022/11/15 00:49:55;;;;;;;14.40;7.80;;;10.80;82.60;;;;;;5027170;28;20986;-69
2022/11/15 00:52:42;;;;;;;16.50;7.30;;;10.80;82.60;;;;;;5024265;28;20455;-69
2022/11/15 00:55:28;;;;;;;18.60;7.90;;;10.80;82.60;;;;;;5026041;28;20498;-69
2022/11/15 00:58:15;;;;;;;45.33;10.80;;;10.80;82.60;;;;;;5026486;28;20475;-69
2022/11/15 01:01:12;;;;;;;26.30;12.43;;;10.80;82.70;;;;;;5023335;28;20479;-70
2022/11/15 01:03:59;;;;;;;13.63;7.40;;;10.80;82.70;;;;;;5026317;28;20462;-69
2022/11/15 01:06:47;;;;;;;23.60;11.77;;;10.70;82.60;;;;;;5022170;28;20486;-69
2022/11/15 01:09:34;;;;;;;20.27;8.80;;;10.80;82.70;;;;;;5026365;28;20458;-69
2022/11/15 01:12:20;;;;;;;16.00;7.67;;;10.70;82.70;;;;;;5025749;28;20462;-69
2022/11/15 01:15:08;;;;;;;12.57;7.43;;;10.70;82.70;;;;;;5026403;28;20447;-69
2022/11/15 01:17:56;;;;;;;13.43;6.87;;;10.70;82.70;;;;;;5025764;28;20478;-70
2022/11/15 01:20:43;;;;;;;17.20;10.03;;;10.70;82.80;;;;;;5023207;28;20522;-69
2022/11/15 01:23:30;;;;;;;20.70;10.87;;;10.70;82.70;;;;;;5022734;28;20468;-69
2022/11/15 01:26:17;;;;;;;16.30;8.90;;;10.70;82.70;;;;;;5024446;28;20475;-69
2022/11/15 01:29:04;;;;;;;10.23;5.83;;;10.70;82.80;;;;;;5023857;28;20549;-70
2022/11/15 01:31:51;;;;;;;9.10;5.27;;;10.70;82.80;;;;;;5022978;28;20455;-69
2022/11/15 01:34:38;;;;;;;9.97;5.97;;;10.70;82.80;;;;;;5022060;28;20466;-69
2022/11/15 01:37:25;;;;;;;9.00;5.43;;;10.70;82.80;;;;;;5026443;28;20483;-69
2022/11/15 01:40:12;;;;;;;11.10;7.17;;;10.70;82.80;;;;;;5027337;28;20443;-69
2022/11/15 01:42:58;;;;;;;13.10;6.80;;;10.70;82.80;;;;;;5025538;28;20836;-69
2022/11/15 01:45:48;;;;;;;20.10;9.43;;;10.70;82.80;;;;;;5023208;28;20480;-69
2022/11/15 01:48:36;;;;;;;14.03;7.60;;;10.60;82.70;;;;;;5019573;28;20557;-69
2022/11/15 01:51:27;;;;;;;13.40;7.87;;;10.60;82.80;;;;;;5027521;28;20459;-70
2022/11/15 01:54:17;;;;;;;15.37;8.93;;;10.60;83.00;;;;;;5027318;28;20466;-68
2022/11/15 01:57:07;;;;;;;36.43;17.10;;;10.60;83.00;;;;;;5023985;28;20472;-69
2022/11/15 01:59:54;;;;;;;38.30;18.60;;;10.60;82.90;;;;;;5023664;28;20467;-70
2022/11/15 02:02:41;;;;;;;35.43;16.30;;;10.50;83.00;;;;;;5024472;28;21113;-70
2022/11/15 02:05:28;;;;;;;22.10;11.10;;;10.50;83.00;;;;;;5027702;28;20471;-70
2022/11/15 02:08:19;;;;;;;16.00;8.57;;;10.50;83.00;;;;;;5020463;28;20475;-70
2022/11/15 02:11:08;;;;;;;15.67;7.00;;;10.50;83.00;;;;;;5023415;28;20507;-69
2022/11/15 02:13:56;;;;;;;12.47;7.37;;;10.50;83.00;;;;;;5024051;28;20466;-69
2022/11/15 02:16:52;;;;;;;14.00;7.90;;;10.50;82.90;;;;;;5022368;28;20680;-68
2022/11/15 02:20:08;;;;;;;14.10;8.60;;;10.40;82.90;;;;;;5025140;28;20474;-68
2022/11/15 02:23:15;;;;;;;15.87;9.00;;;10.40;83.00;;;;;;5024451;28;20459;-70
2022/11/15 02:26:24;;;;;;;29.60;13.40;;;10.40;82.90;;;;;;5021567;28;21227;-70
2022/11/15 02:29:14;;;;;;;22.93;11.60;;;10.30;82.90;;;;;;5021992;28;21207;-69
2022/11/15 02:32:07;;;;;;;18.73;11.53;;;10.30;82.90;;;;;;5019953;28;21059;-70
2022/11/15 02:35:02;;;;;;;16.07;9.90;;;10.30;82.90;;;;;;5022822;28;20451;-70
2022/11/15 02:37:56;;;;;;;17.63;10.43;;;10.20;82.90;;;;;;5023380;28;20483;-68
2022/11/15 02:40:50;;;;;;;18.37;10.03;;;10.20;82.90;;;;;;5022381;28;20463;-68
2022/11/15 02:43:59;;;;;;;13.27;7.90;;;10.20;82.80;;;;;;5023225;28;20467;-69
2022/11/15 02:49:59;;;;;;;11.30;7.43;;;10.10;82.70;;;;;;5021491;28;20614;-69
2022/11/15 02:52:47;;;;;;;12.03;7.27;;;10.00;82.60;;;;;;5023943;28;20935;-69
2022/11/15 02:55:36;;;;;;;11.17;7.37;;;9.90;82.50;;;;;;5022230;28;20454;-70
2022/11/15 02:58:40;;;;;;;13.60;7.93;;;9.90;82.60;;;;;;5022188;28;20633;-70
2022/11/15 03:01:39;;;;;;;12.03;7.90;;;9.80;82.60;;;;;;5023382;28;20478;-70
2022/11/15 03:04:37;;;;;;;15.17;7.87;;;9.80;82.60;;;;;;5023563;28;20463;-68
2022/11/15 03:07:31;;;;;;;13.23;8.43;;;9.70;82.60;;;;;;5022294;28;20515;-70
2022/11/15 03:10:25;;;;;;;15.30;8.17;;;9.70;82.60;;;;;;5020055;28;20463;-70
2022/11/15 03:13:22;;;;;;;11.30;8.07;;;9.70;82.60;;;;;;5019852;28;20460;-70
2022/11/15 03:16:14;;;;;;;14.87;7.73;;;9.60;82.60;;;;;;5022676;28;20579;-68
2022/11/15 03:19:07;;;;;;;11.57;7.53;;;9.60;82.60;;;;;;5021816;28;20471;-70
2022/11/15 03:21:57;;;;;;;11.37;7.87;;;9.60;82.50;;;;;;5021956;28;20798;-69
2022/11/15 03:24:46;;;;;;;14.33;8.53;;;9.50;82.40;;;;;;5024397;28;20468;-69
2022/11/15 03:27:37;;;;;;;16.53;10.40;;;9.50;82.40;;;;;;5022729;28;20483;-68
2022/11/15 03:30:24;;;;;;;17.87;11.47;;;9.50;82.50;;;;;;5020121;28;20459;-68
2022/11/15 03:33:12;;;;;;;14.43;8.03;;;9.50;82.50;;;;;;5019766;28;20459;-68
2022/11/15 03:35:59;;;;;;;14.67;6.47;;;9.40;82.50;;;;;;5024629;28;20952;-68
2022/11/15 03:38:46;;;;;;;15.37;7.07;;;9.40;82.40;;;;;;5022192;28;21046;-69
2022/11/15 03:41:40;;;;;;;12.90;5.60;;;9.40;82.40;;;;;;5021149;28;20546;-68
2022/11/15 03:44:37;;;;;;;10.37;6.07;;;9.30;82.40;;;;;;5019937;28;20467;-68
2022/11/15 03:47:28;;;;;;;8.83;5.57;;;9.30;82.40;;;;;;5020612;28;20483;-69
2022/11/15 03:50:18;;;;;;;16.23;8.60;;;9.30;82.60;;;;;;5025827;28;20447;-68
2022/11/15 03:53:05;;;;;;;30.00;13.97;;;9.20;82.80;;;;;;5026184;28;20459;-69
2022/11/15 03:55:51;;;;;;;23.80;11.23;;;9.30;82.70;;;;;;5026970;28;20938;-68
2022/11/15 03:58:39;;;;;;;20.27;10.70;;;9.30;82.90;;;;;;5026099;28;20529;-68
2022/11/15 04:01:25;;;;;;;15.90;9.10;;;9.30;83.10;;;;;;5021307;28;20586;-68
2022/11/15 04:04:12;;;;;;;12.10;6.70;;;9.40;83.10;;;;;;5027248;28;20536;-68
2022/11/15 04:06:59;;;;;;;10.63;6.20;;;9.40;83.10;;;;;;5031389;28;21032;-68
2022/11/15 04:10:05;;;;;;;12.87;6.17;;;9.50;83.10;;;;;;5023461;28;20478;-70
2022/11/15 04:12:51;;;;;;;10.50;6.10;;;9.50;83.00;;;;;;5025168;28;20453;-69
2022/11/15 04:15:39;;;;;;;13.15;5.22;;;9.60;83.00;;;;;;5027236;28;20499;-70
2022/11/15 04:18:26;;;;;;;10.27;5.27;;;9.60;83.00;;;;;;5025043;28;20240;-68
2022/11/15 04:24:31;;;;;;;9.90;4.60;;;9.60;83.00;;;;;;5003466;28;21374;-68
2022/11/15 04:27:17;;;;;;;11.87;6.77;;;9.60;82.90;;;;;;5004866;28;20492;-70
2022/11/15 04:30:05;;;;;;;10.30;6.73;;;9.60;82.80;;;;;;5023710;28;20488;-69
2022/11/15 04:32:53;;;;;;;12.00;6.97;;;9.60;82.70;;;;;;5026806;28;21124;-70
2022/11/15 04:35:39;;;;;;;9.10;6.10;;;9.50;82.60;;;;;;5032032;28;20550;-69
2022/11/15 04:38:24;;;;;;;11.00;5.73;;;9.50;82.60;;;;;;5024414;28;20479;-69
2022/11/15 04:41:11;;;;;;;8.80;5.33;;;9.50;82.60;;;;;;5026425;28;20466;-70
2022/11/15 04:43:57;;;;;;;8.90;5.27;;;9.40;82.60;;;;;;5031636;28;20819;-69
2022/11/15 04:46:44;;;;;;;11.83;6.23;;;9.40;82.50;;;;;;5031821;28;20477;-70
2022/11/15 04:49:32;;;;;;;11.10;6.40;;;9.40;82.40;;;;;;5029005;28;20475;-69
2022/11/15 04:52:18;;;;;;;11.83;6.23;;;9.30;82.30;;;;;;5028985;28;21156;-70
2022/11/15 04:55:05;;;;;;;10.53;6.00;;;9.30;82.30;;;;;;5028421;28;20451;-70
2022/11/15 04:58:00;;;;;;;9.70;6.13;;;9.20;82.40;;;;;;5027015;28;20495;-70
2022/11/15 05:00:47;;;;;;;9.48;6.05;;;9.20;82.40;;;;;;5029552;28;20462;-70
2022/11/15 05:06:39;;;;;;;9.00;5.80;;;9.10;82.40;;;;;;5029781;28;20645;-70
2022/11/15 05:09:25;;;;;;;11.67;6.47;;;9.10;82.40;;;;;;5024378;28;20590;-70
2022/11/15 05:12:12;;;;;;;9.63;6.30;;;9.10;82.40;;;;;;5028088;28;20480;-68
2022/11/15 05:14:58;;;;;;;10.30;6.57;;;9.10;82.40;;;;;;5025038;28;20545;-68
2022/11/15 05:17:45;;;;;;;9.35;5.63;;;9.10;82.40;;;;;;5020805;28;20478;-68
2022/11/15 05:20:31;;;;;;;9.77;6.27;;;9.00;82.30;;;;;;5025020;28;20232;-68
2022/11/15 05:23:19;;;;;;;10.10;6.63;;;9.00;82.20;;;;;;5026513;28;20564;-69
2022/11/15 05:26:06;;;;;;;12.20;8.13;;;9.00;82.20;;;;;;5029360;28;20459;-69
2022/11/15 05:28:56;;;;;;;19.93;8.10;;;8.90;82.20;;;;;;5021794;28;20455;-69
2022/11/15 05:31:43;;;;;;;12.00;6.70;;;8.90;82.20;;;;;;5023840;28;20604;-69
2022/11/15 05:34:30;;;;;;;11.20;7.60;;;8.90;82.10;;;;;;5027298;28;20866;-70
2022/11/15 05:37:17;;;;;;;11.00;7.50;;;8.80;82.20;;;;;;5027310;28;20602;-70
2022/11/15 05:40:06;;;;;;;10.40;7.13;;;8.80;82.20;;;;;;5027213;28;20279;-68
2022/11/15 05:42:53;;;;;;;10.70;7.13;;;8.80;82.20;;;;;;5020566;28;20497;-70
2022/11/15 05:45:39;;;;;;;25.93;16.80;;;8.80;82.20;;;;;;5025167;28;20466;-69
2022/11/15 05:48:26;;;;;;;18.60;9.25;;;8.80;82.10;;;;;;5024417;28;20507;-68
2022/11/15 05:51:14;;;;;;;17.07;9.43;;;8.70;82.10;;;;;;5029301;28;20213;-70
2022/11/15 05:54:01;;;;;;;18.53;9.17;;;8.70;82.00;;;;;;5024765;28;20458;-70
2022/11/15 05:56:50;;;;;;;13.30;8.93;;;8.70;82.00;;;;;;5023842;28;20462;-68
2022/11/15 05:59:37;;;;;;;17.10;7.20;;;8.70;82.10;;;;;;5022667;28;20286;-68
2022/11/15 06:02:23;;;;;;;11.47;6.53;;;8.70;82.10;;;;;;5025070;28;20681;-68
2022/11/15 06:05:10;;;;;;;14.13;7.50;;;8.70;82.10;;;;;;5024996;28;20456;-69
2022/11/15 06:07:58;;;;;;;16.30;8.00;;;8.60;82.00;;;;;;5023802;28;20256;-70
2022/11/15 06:10:45;;;;;;;12.60;7.93;;;8.60;82.00;;;;;;5025645;28;21114;-70
2022/11/15 06:13:33;;;;;;;13.65;8.13;;;8.60;82.00;;;;;;5026393;28;20486;-70
2022/11/15 06:16:19;;;;;;;11.45;8.50;;;8.60;82.10;;;;;;5024263;28;20320;-69
2022/11/15 06:19:07;;;;;;;15.03;7.90;;;8.60;82.10;;;;;;5021917;28;20570;-70
2022/11/15 06:21:53;;;;;;;18.65;10.25;;;8.70;82.00;;;;;;5025340;28;20466;-69
2022/11/15 06:24:40;;;;;;;17.65;10.70;;;8.60;81.90;;;;;;5026324;28;20219;-70
2022/11/15 06:27:26;;;;;;;16.65;10.48;;;8.60;81.90;;;;;;5025638;28;20241;-68
2022/11/15 06:30:15;;;;;;;15.70;11.23;;;8.60;82.00;;;;;;5022146;28;20859;-68
2022/11/15 06:33:03;;;;;;;13.43;10.18;;;8.60;82.00;;;;;;5022994;28;20467;-68
2022/11/15 06:35:50;;;;;;;19.70;11.07;;;8.60;82.10;;;;;;5021844;28;20608;-68
2022/11/15 06:38:37;;;;;;;16.53;11.33;;;8.70;82.00;;;;;;5025364;28;20566;-70
2022/11/15 06:41:24;;;;;;;19.30;11.70;;;8.70;82.00;;;;;;5022941;28;20558;-70
2022/11/15 06:44:10;;;;;;;23.13;13.13;;;8.60;82.00;;;;;;5021589;28;20251;-69
2022/11/15 06:46:58;;;;;;;26.10;16.80;;;8.70;82.00;;;;;;5019159;28;20920;-69
2022/11/15 06:49:44;;;;;;;30.63;19.20;;;8.70;82.10;;;;;;5022611;28;20512;-70
2022/11/15 06:52:32;;;;;;;47.42;28.30;;;8.70;82.10;;;;;;5023328;28;21305;-70
2022/11/15 06:55:19;;;;;;;27.45;17.77;;;8.70;82.20;;;;;;5022987;28;20216;-70
2022/11/15 06:58:05;;;;;;;20.50;13.90;;;8.70;82.20;;;;;;5019746;28;20246;-70
2022/11/15 07:00:52;;;;;;;21.60;14.60;;;8.80;82.10;;;;;;5020044;28;20463;-71
2022/11/15 07:03:42;;;;;;;22.48;13.98;;;8.80;82.20;;;;;;5023792;28;20784;-68
2022/11/15 07:06:28;;;;;;;20.53;13.10;;;8.80;82.30;;;;;;5023098;28;20250;-69
2022/11/15 07:09:15;;;;;;;26.23;18.77;;;8.80;82.30;;;;;;5022300;28;20482;-69
2022/11/15 07:12:02;;;;;;;35.30;23.30;;;8.90;82.30;;;;;;5019814;28;20553;-69
2022/11/15 07:14:53;;;;;;;41.00;27.20;;;8.90;82.30;;;;;;5019195;28;20980;-70
2022/11/15 07:17:40;;;;;;;39.90;25.07;;;8.90;82.40;;;;;;5025791;28;20228;-68
2022/11/15 07:20:28;;;;;;;26.05;17.42;;;9.00;82.40;;;;;;5022003;28;20642;-70
2022/11/15 07:23:14;;;;;;;22.30;15.33;;;9.00;82.40;;;;;;5022401;28;20209;-70
2022/11/15 07:26:01;;;;;;;20.47;14.63;;;9.00;82.50;;;;;;5020057;28;20541;-70
2022/11/15 07:28:47;;;;;;;19.03;13.40;;;9.00;82.50;;;;;;5026162;28;20542;-70
2022/11/15 07:31:34;;;;;;;19.83;14.00;;;9.10;82.50;;;;;;5021965;28;20468;-70
2022/11/15 07:34:21;;;;;;;22.90;13.83;;;9.10;82.50;;;;;;5025138;28;20447;-69
2022/11/15 07:37:08;;;;;;;24.70;11.50;;;9.10;82.50;;;;;;5024037;28;20474;-70
2022/11/15 07:39:55;;;;;;;15.50;10.43;;;9.10;82.50;;;;;;5025891;28;21377;-69
2022/11/15 07:42:53;;;;;;;15.10;8.70;;;9.10;82.50;;;;;;5019059;28;20468;-69
2022/11/15 07:45:42;;;;;;;15.93;9.90;;;9.10;82.50;;;;;;5019163;28;20468;-70
2022/11/15 07:48:29;;;;;;;16.13;9.40;;;9.10;82.60;;;;;;5024516;28;20565;-69
2022/11/15 07:51:28;;;;;;;19.73;11.30;;;9.20;82.60;;;;;;5020325;28;20467;-69
2022/11/15 07:54:16;;;;;;;20.10;11.43;;;9.20;82.70;;;;;;5023761;28;20975;-68
2022/11/15 07:57:02;;;;;;;18.07;10.47;;;9.20;82.70;;;;;;5025748;28;20479;-69
2022/11/15 07:59:53;;;;;;;17.27;10.90;;;9.20;82.70;;;;;;5028388;28;20454;-69
2022/11/15 08:02:39;;;;;;;23.37;10.77;;;9.20;82.70;;;;;;5024709;28;20919;-68
2022/11/15 08:05:27;;;;;;;15.10;9.77;;;9.20;82.70;;;;;;5021784;28;20459;-68
2022/11/15 08:08:13;;;;;;;14.90;9.43;;;9.20;82.70;;;;;;5024572;28;20224;-68
2022/11/15 08:11:01;;;;;;;14.13;8.03;;;9.30;82.70;;;;;;5021831;28;20831;-68
2022/11/15 08:13:48;;;;;;;14.03;8.60;;;9.30;82.70;;;;;;5022829;28;20548;-68
2022/11/15 08:16:34;;;;;;;12.40;7.60;;;9.30;82.80;;;;;;5025645;28;20499;-67
2022/11/15 08:19:20;;;;;;;14.73;9.10;;;9.30;82.80;;;;;;5019078;28;20550;-68
2022/11/15 08:22:08;;;;;;;22.40;11.10;;;9.30;82.80;;;;;;5017765;28;20607;-68
2022/11/15 08:24:54;;;;;;;15.70;10.27;;;9.40;82.80;;;;;;5019627;28;20456;-68
2022/11/15 08:27:42;;;;;;;15.80;9.33;;;9.40;82.90;;;;;;5020160;28;21067;-68
2022/11/15 08:30:29;;;;;;;15.03;9.07;;;9.40;82.90;;;;;;5020860;28;20458;-68
2022/11/15 08:33:16;;;;;;;13.80;8.13;;;9.40;82.90;;;;;;5018289;28;20462;-68
2022/11/15 08:36:02;;;;;;;13.50;8.33;;;9.40;83.10;;;;;;5023284;28;20475;-68
2022/11/15 08:38:49;;;;;;;13.53;7.90;;;9.50;83.00;;;;;;5022400;28;20555;-68
2022/11/15 08:41:37;;;;;;;13.47;7.90;;;9.50;83.00;;;;;;5014427;28;20454;-68
2022/11/15 08:44:25;;;;;;;12.47;7.53;;;9.50;83.00;;;;;;5016552;28;20463;-67
2022/11/15 08:47:13;;;;;;;9.37;6.43;;;9.60;83.10;;;;;;5022610;28;20482;-68
2022/11/15 08:50:00;;;;;;;10.17;7.00;;;9.60;83.10;;;;;;5021745;28;21005;-68
2022/11/15 08:52:47;;;;;;;9.33;6.67;;;9.60;83.10;;;;;;5026406;28;20451;-68
2022/11/15 08:55:38;;;;;;;11.80;7.50;;;9.60;83.10;;;;;;5031323;28;20458;-68
2022/11/15 08:58:24;;;;;;;12.50;7.33;;;9.70;83.20;;;;;;5023898;28;20572;-68
2022/11/15 09:01:19;;;;;;;10.40;7.27;;;9.70;83.20;;;;;;5019166;28;21213;-69
2022/11/15 09:04:06;;;;;;;9.87;6.20;;;9.70;83.20;;;;;;5024286;28;20447;-68
2022/11/15 09:06:52;;;;;;;13.67;7.80;;;9.70;83.20;;;;;;5023136;28;20482;-68
2022/11/15 09:09:39;;;;;;;10.50;7.37;;;9.70;83.20;;;;;;5030089;28;20470;-68
2022/11/15 09:12:26;;;;;;;10.80;7.50;;;9.80;83.30;;;;;;5026209;28;21081;-67
2022/11/15 09:15:13;;;;;;;16.23;10.60;;;9.80;83.30;;;;;;5025494;28;20562;-68
2022/11/15 09:18:01;;;;;;;13.83;8.70;;;9.80;83.40;;;;;;5024618;28;21046;-68
2022/11/15 09:20:47;;;;;;;15.80;8.87;;;9.80;83.40;;;;;;5020281;28;20459;-68
2022/11/15 09:23:34;;;;;;;15.73;9.27;;;9.90;83.40;;;;;;5028858;28;21096;-68
2022/11/15 09:26:20;;;;;;;14.27;8.83;;;9.90;83.40;;;;;;5021986;28;20463;-68
2022/11/15 09:29:07;;;;;;;12.37;7.80;;;9.90;83.40;;;;;;5020889;28;20490;-68
2022/11/15 09:31:53;;;;;;;14.00;8.50;;;10.00;83.40;;;;;;5023196;28;20614;-68
2022/11/15 09:34:41;;;;;;;12.60;9.00;;;10.00;83.40;;;;;;5030997;28;20537;-68
2022/11/15 09:37:28;;;;;;;15.67;9.07;;;10.00;83.40;;;;;;5029550;28;20521;-68
2022/11/15 09:40:19;;;;;;;13.73;8.70;;;10.00;83.50;;;;;;5025772;28;20443;-68
2022/11/15 09:43:19;;;;;;;14.87;8.90;;;10.10;83.50;;;;;;5022450;28;20466;-69
2022/11/15 09:46:16;;;;;;;14.97;8.90;;;10.10;83.50;;;;;;5025918;28;20976;-69
2022/11/15 09:49:19;;;;;;;13.10;8.43;;;10.10;83.70;;;;;;5022530;28;20525;-73
2022/11/15 09:52:04;;;;;;;12.57;9.03;;;10.20;83.60;;;;;;5018696;28;20468;-69
2022/11/15 09:54:35;;;;;;;16.43;10.40;;;10.20;83.70;;;;;;5022878;28;20833;-70
2022/11/15 09:57:30;;;;;;;33.00;21.53;;;10.20;83.70;;;;;;5025381;28;20541;-70
2022/11/15 10:00:08;;;;;;;253.30;138.03;;;10.20;83.80;;;;;;5029246;28;20470;-69
2022/11/15 10:03:10;;;;;;;202.30;110.50;;;10.30;83.90;;;;;;5027014;28;20483;-71
2022/11/15 10:05:40;;;;;;;104.33;58.27;;;10.30;84.10;;;;;;5020982;28;20464;-71
2022/11/15 10:08:29;;;;;;;34.67;21.40;;;10.40;84.10;;;;;;5024877;28;20495;-70
2022/11/15 10:11:00;;;;;;;23.80;14.00;;;10.40;84.10;;;;;;5022546;28;20460;-69
2022/11/15 10:13:50;;;;;;;17.27;9.70;;;10.50;84.10;;;;;;5021305;28;20452;-70
2022/11/15 10:16:36;;;;;;;14.47;9.60;;;10.50;84.10;;;;;;5026484;28;20510;-71
2022/11/15 10:19:14;;;;;;;20.23;10.67;;;10.50;84.20;;;;;;5020029;28;20445;-70
2022/11/15 10:21:52;;;;;;;14.33;8.80;;;10.60;84.30;;;;;;5028930;28;20458;-71
2022/11/15 10:24:27;;;;;;;19.70;9.37;;;10.60;84.20;;;;;;5027950;28;20493;-70
2022/11/15 10:26:56;;;;;;;22.23;11.37;;;10.70;84.40;;;;;;5024043;28;22011;-73
2022/11/15 10:29:25;;;;;;;17.30;10.57;;;10.70;84.40;;;;;;5033360;28;20494;-71
2022/11/15 10:31:54;;;;;;;14.90;10.13;;;10.70;84.50;;;;;;5021465;28;20460;-70
2022/11/15 10:34:23;;;;;;;15.93;9.20;;;10.80;84.50;;;;;;5025710;28;20526;-71
2022/11/15 10:36:56;;;;;;;15.67;9.20;;;10.80;84.40;;;;;;5021662;28;20823;-70
2022/11/15 10:39:27;;;;;;;11.67;7.83;;;10.90;84.40;;;;;;5022773;28;20562;-71
2022/11/15 10:41:55;;;;;;;15.40;7.80;;;10.90;84.40;;;;;;5022379;28;21140;-71
2022/11/15 10:44:31;;;;;;;16.30;9.33;;;11.00;84.40;;;;;;5021578;28;21059;-71
2022/11/15 10:47:34;;;;;;;12.43;8.30;;;11.00;84.40;;;;;;5023805;28;21003;-71
2022/11/15 10:50:25;;;;;;;16.97;10.10;;;11.00;84.40;;;;;;5025742;28;20489;-70
2022/11/15 10:52:54;;;;;;;14.23;10.10;;;11.10;84.40;;;;;;5018265;28;20472;-71
2022/11/15 10:55:27;;;;;;;22.27;10.60;;;11.10;84.40;;;;;;5023439;28;20450;-70
2022/11/15 10:57:58;;;;;;;17.13;10.20;;;11.10;84.40;;;;;;5023661;28;20491;-71
2022/11/15 11:00:33;;;;;;;15.30;9.20;;;11.10;84.40;;;;;;5022099;28;21221;-72
2022/11/15 11:03:03;;;;;;;13.80;8.77;;;11.10;84.40;;;;;;5020373;28;20493;-70
2022/11/15 11:05:34;;;;;;;16.00;7.83;;;11.10;84.40;;;;;;5023954;28;20476;-71
2022/11/15 11:08:22;;;;;;;15.77;8.90;;;11.20;84.40;;;;;;5024599;28;20480;-71
2022/11/15 11:10:55;;;;;;;16.33;9.03;;;11.20;84.50;;;;;;5019243;28;20557;-69
2022/11/15 11:13:31;;;;;;;16.10;9.27;;;11.20;84.50;;;;;;5019176;28;20570;-71
2022/11/15 11:16:09;;;;;;;15.10;9.50;;;11.20;84.50;;;;;;5020880;28;20459;-70
2022/11/15 11:18:45;;;;;;;15.07;8.97;;;11.20;84.40;;;;;;5018902;28;20869;-70
2022/11/15 11:21:19;;;;;;;13.10;8.70;;;11.30;84.50;;;;;;5023561;28;20467;-70
2022/11/15 11:23:55;;;;;;;19.33;9.80;;;11.30;84.50;;;;;;5023731;28;20471;-70
2022/11/15 11:26:41;;;;;;;18.00;9.37;;;11.30;84.50;;;;;;5024905;28;20909;-71
2022/11/15 11:29:21;;;;;;;18.43;9.23;;;11.30;84.50;;;;;;5022642;28;20541;-69
2022/11/15 11:31:55;;;;;;;19.03;9.27;;;11.30;84.50;;;;;;5019732;28;20534;-69
2022/11/15 11:34:36;;;;;;;18.40;9.30;;;11.40;84.60;;;;;;5022696;28;20455;-69
2022/11/15 11:37:12;;;;;;;14.30;9.80;;;11.40;84.60;;;;;;5018808;28;20506;-69
2022/11/15 11:39:49;;;;;;;16.23;9.27;;;11.50;84.70;;;;;;5021543;28;20466;-70
2022/11/15 11:42:29;;;;;;;13.80;9.20;;;11.50;84.70;;;;;;5023517;28;20468;-70
2022/11/15 11:45:04;;;;;;;19.10;10.20;;;11.50;84.70;;;;;;5021953;28;20467;-68
2022/11/15 11:47:38;;;;;;;18.40;8.67;;;11.60;84.70;;;;;;5020657;28;21007;-71
2022/11/15 11:50:16;;;;;;;15.83;9.10;;;11.60;84.60;;;;;;5020140;28;20990;-69
2022/11/15 11:52:53;;;;;;;15.60;9.60;;;11.60;84.60;;;;;;5022616;28;20997;-69
2022/11/15 11:55:24;;;;;;;16.70;9.30;;;11.60;84.70;;;;;;5025302;28;20493;-71
2022/11/15 11:58:03;;;;;;;14.80;8.83;;;11.70;84.70;;;;;;5015577;28;20476;-71
2022/11/15 12:00:35;;;;;;;15.57;9.80;;;11.70;84.70;;;;;;5021331;28;20463;-69
2022/11/15 12:03:10;;;;;;;18.57;10.70;;;11.70;84.70;;;;;;5019312;28;20515;-70
2022/11/15 12:05:43;;;;;;;18.30;9.97;;;11.70;84.70;;;;;;5024063;28;20549;-70
2022/11/15 12:08:25;;;;;;;15.50;9.20;;;11.80;84.80;;;;;;5027548;28;20480;-71
2022/11/15 12:11:00;;;;;;;15.53;9.17;;;11.80;84.80;;;;;;5019898;28;21000;-71
2022/11/15 12:13:36;;;;;;;15.97;8.87;;;11.80;84.80;;;;;;5024559;28;20456;-70
2022/11/15 12:16:11;;;;;;;18.03;9.50;;;11.80;84.90;;;;;;5020834;28;20468;-71
2022/11/15 12:18:39;;;;;;;15.90;8.07;;;11.90;84.90;;;;;;5019341;28;20482;-71
2022/11/15 12:21:15;;;;;;;15.90;8.53;;;11.90;84.90;;;;;;5027896;28;20473;-70
2022/11/15 12:23:47;;;;;;;17.07;9.63;;;11.90;84.90;;;;;;5029399;28;20466;-70
2022/11/15 12:26:21;;;;;;;18.50;12.23;;;11.90;84.90;;;;;;5026525;28;20467;-70
2022/11/15 12:28:54;;;;;;;22.60;12.53;;;12.00;84.80;;;;;;5024441;28;20475;-69
2022/11/15 12:31:40;;;;;;;20.30;10.53;;;12.00;84.80;;;;;;5028341;28;20486;-70
2022/11/15 12:34:35;;;;;;;14.10;10.30;;;12.00;84.80;;;;;;5025118;28;20463;-70
2022/11/15 12:37:55;;;;;;;19.40;11.13;;;12.00;84.70;;;;;;5024864;28;20641;-71
2022/11/15 12:40:32;;;;;;;16.63;11.57;;;12.00;84.80;;;;;;5029824;28;20909;-69
2022/11/15 12:43:20;;;;;;;20.90;12.43;;;12.10;84.90;;;;;;5023645;28;21007;-70
2022/11/15 12:45:49;;;;;;;25.23;12.40;;;12.10;84.90;;;;;;5022573;28;20882;-69
2022/11/15 12:48:57;;;;;;;18.70;10.77;;;12.20;85.00;;;;;;5026071;28;21341;-71
2022/11/15 12:52:05;;;;;;;18.70;12.40;;;12.20;85.10;;;;;;5030901;28;20522;-70
2022/11/15 12:55:25;;;;;;;18.17;10.97;;;12.30;85.20;;;;;;5024755;28;20451;-70
2022/11/15 12:57:53;;;;;;;19.63;10.93;;;12.30;85.20;;;;;;5023461;28;20847;-71
2022/11/15 13:00:48;;;;;;;14.13;9.70;;;12.30;85.20;;;;;;5024644;28;20950;-70
2022/11/15 13:03:33;;;;;;;16.47;9.77;;;12.40;85.30;;;;;;5028804;28;20471;-71
2022/11/15 13:06:41;;;;;;;22.93;9.83;;;12.50;85.30;;;;;;5028625;28;20455;-70
2022/11/15 13:09:47;;;;;;;14.10;6.80;;;12.50;85.30;;;;;;5025937;28;20453;-71
2022/11/15 13:12:52;;;;;;;13.03;6.37;;;12.60;85.20;;;;;;5027060;28;20479;-71
2022/11/15 13:15:44;;;;;;;12.60;7.97;;;12.60;85.10;;;;;;5026596;28;20472;-72
2022/11/15 13:18:38;;;;;;;12.83;7.90;;;12.70;85.20;;;;;;5028962;28;20475;-71
2022/11/15 13:24:13;;;;;;;13.30;8.70;;;12.70;85.40;;;;;;5039232;28;20453;-71
2022/11/15 13:26:41;;;;;;;13.00;9.30;;;12.80;85.30;;;;;;5025527;28;20523;-69
2022/11/15 13:29:17;;;;;;;16.20;8.70;;;12.80;85.10;;;;;;5030312;28;20465;-71
2022/11/15 13:31:47;;;;;;;13.90;7.63;;;12.80;85.10;;;;;;5028009;28;20507;-69
2022/11/15 13:34:36;;;;;;;20.50;9.27;;;12.80;85.00;;;;;;5022534;28;20449;-71
2022/11/15 13:37:32;;;;;;;15.20;7.93;;;12.70;85.10;;;;;;5026483;28;20482;-70
2022/11/15 13:40:19;;;;;;;12.43;8.27;;;12.70;85.20;;;;;;5026716;28;20548;-70
2022/11/15 13:42:47;;;;;;;11.10;7.93;;;12.70;85.20;;;;;;5025716;28;20480;-70
2022/11/15 13:45:18;;;;;;;15.87;8.80;;;12.70;85.30;;;;;;5023394;28;20467;-71
2022/11/15 13:47:52;;;;;;;13.97;8.70;;;12.70;85.30;;;;;;5023815;28;20495;-70
2022/11/15 13:50:25;;;;;;;16.43;9.27;;;12.70;85.30;;;;;;5015054;28;20468;-71
2022/11/15 13:52:56;;;;;;;18.00;8.67;;;12.70;85.30;;;;;;5021830;28;20969;-70
2022/11/15 13:55:25;;;;;;;14.87;9.73;;;12.70;85.30;;;;;;5025258;28;20468;-70
2022/11/15 13:57:56;;;;;;;13.23;8.30;;;12.70;85.40;;;;;;5026555;28;20495;-68
2022/11/15 14:00:36;;;;;;;13.03;8.27;;;12.70;85.40;;;;;;5020639;28;20473;-70
2022/11/15 14:03:14;;;;;;;18.33;8.47;;;12.70;85.40;;;;;;5020916;28;20981;-70
2022/11/15 14:05:43;;;;;;;16.10;9.03;;;12.70;85.40;;;;;;5027602;28;20452;-70
2022/11/15 14:08:23;;;;;;;13.80;9.07;;;12.70;85.40;;;;;;5028681;28;20483;-70
2022/11/15 14:11:08;;;;;;;14.37;10.13;;;12.70;85.40;;;;;;5022160;28;20492;-70
2022/11/15 14:13:36;;;;;;;17.73;9.97;;;12.70;85.40;;;;;;5021097;28;20487;-70
2022/11/15 14:16:15;;;;;;;14.97;8.90;;;12.70;85.50;;;;;;5019174;28;20468;-69
2022/11/15 14:18:46;;;;;;;11.60;8.27;;;12.70;85.50;;;;;;5023060;28;20482;-70
2022/11/15 14:21:16;;;;;;;13.80;8.00;;;12.70;85.60;;;;;;4977410;28;20477;-70
2022/11/15 14:23:44;;;;;;;17.23;9.37;;;12.70;85.60;;;;;;5016224;28;20451;-70
2022/11/15 14:26:27;;;;;;;23.40;14.33;;;12.70;85.50;;;;;;5013480;28;20460;-70